Time;durP1;ratioP1;P1;durP2;ratioP2;P2;SDS_P1;SDS_P2;PMS_P1;PMS_P2;Temp;Humidity;BMP_temperature;BMP_pressure;BME280_temperature;BME280_humidity;BME280_pressure;Samples;Min_cycle;Max_cycle;Signal;HPM_P1;HPM_P2
2022/11/03 00:02:06;;;;;;;0.50;0.50;;;23.20;64.60;;;23.48;46.82;95624.47;5079867;28;20251;-78
2022/11/03 00:04:33;;;;;;;0.35;0.35;;;23.20;64.60;;;23.49;46.82;95631.44;5079392;28;20262;-78
2022/11/03 00:07:01;;;;;;;0.40;0.40;;;23.20;64.60;;;23.49;47.11;95623.41;5079457;28;20281;-78
2022/11/03 00:09:30;;;;;;;0.50;0.50;;;23.30;64.70;;;23.45;46.54;95622.31;5063014;28;20682;-78
2022/11/03 00:11:58;;;;;;;0.43;0.43;;;23.20;64.60;;;23.48;46.63;95621.78;5079376;28;20224;-78
2022/11/03 00:14:25;;;;;;;0.40;0.40;;;23.20;64.60;;;23.45;46.56;95619.63;5062936;28;20260;-78
2022/11/03 00:16:52;;;;;;;0.30;0.30;;;23.20;64.60;;;23.49;46.75;95618.84;5079361;28;20197;-77
2022/11/03 00:19:20;;;;;;;0.35;0.35;;;23.20;64.60;;;23.46;46.63;95607.84;5062867;28;20221;-77
2022/11/03 00:21:47;;;;;;;0.40;0.40;;;23.20;64.60;;;23.45;46.46;95607.03;5079559;28;20230;-77
2022/11/03 00:24:14;;;;;;;0.40;0.40;;;23.20;64.60;;;23.45;46.82;95612.38;5079443;28;20735;-77
2022/11/03 00:26:42;;;;;;;0.40;0.40;;;23.20;64.60;;;23.48;46.64;95621.78;5096331;28;20193;-78
2022/11/03 00:29:12;;;;;;;0.40;0.40;;;23.20;64.60;;;23.48;46.57;95619.09;5062716;28;20206;-77
2022/11/03 00:31:43;;;;;;;0.50;0.50;;;23.20;64.60;;;23.43;46.48;95600.31;5096317;28;20174;-77
2022/11/03 00:34:10;;;;;;;0.30;0.30;;;23.20;64.60;;;23.47;46.64;95601.41;5062699;28;20199;-77
2022/11/03 00:36:43;;;;;;;0.40;0.40;;;23.20;64.60;;;23.44;46.30;95599.28;5079156;28;20201;-77
2022/11/03 00:39:10;;;;;;;0.32;0.32;;;23.20;64.60;;;23.46;46.79;95594.44;5062774;28;20207;-77
2022/11/03 00:41:38;;;;;;;0.50;0.50;;;23.20;64.50;;;23.44;46.82;95594.72;5045972;28;20696;-77
2022/11/03 00:44:07;;;;;;;0.40;0.40;;;23.20;64.50;;;23.41;46.65;95586.38;5062463;28;20186;-77
2022/11/03 00:46:34;;;;;;;0.40;0.40;;;23.20;64.50;;;23.43;46.47;95589.63;5062595;28;20205;-77
2022/11/03 00:49:05;;;;;;;0.30;0.30;;;23.20;64.60;;;23.43;46.67;95589.63;5079002;28;20259;-77
2022/11/03 00:51:33;;;;;;;0.40;0.40;;;23.20;64.50;;;23.39;46.62;95583.97;5078768;28;20205;-77
2022/11/03 00:54:03;;;;;;;0.45;0.45;;;23.20;64.60;;;23.44;46.54;95585.88;5077396;28;20214;-77
2022/11/03 00:56:32;;;;;;;0.30;0.30;;;23.20;64.50;;;23.43;46.56;95585.06;5095528;28;20194;-77
2022/11/03 00:59:02;;;;;;;0.40;0.40;;;23.20;64.50;;;23.44;46.68;95588.56;5078954;28;20732;-77
2022/11/03 01:01:36;;;;;;;0.40;0.40;;;23.20;64.50;;;23.43;46.64;95578.91;5078751;28;20206;-77
2022/11/03 01:06:59;;;;;;;0.40;0.40;;;23.20;64.50;;;23.39;46.67;95564.41;5078405;28;20178;-77
2022/11/03 01:09:29;;;;;;;0.50;0.50;;;23.20;64.50;;;23.40;46.50;95568.69;5078729;28;20224;-77
2022/11/03 01:12:11;;;;;;;0.40;0.40;;;23.20;64.50;;;23.39;46.72;95569.75;5078829;28;20491;-77
2022/11/03 01:14:41;;;;;;;0.40;0.40;;;23.20;64.50;;;23.38;46.56;95577.00;5061819;28;20224;-77
2022/11/03 01:17:12;;;;;;;0.40;0.40;;;23.20;64.50;;;23.30;46.68;95556.06;5078546;28;20208;-77
2022/11/03 01:19:40;;;;;;;0.40;0.40;;;23.10;64.40;;;23.33;46.72;95558.22;5078347;28;20680;-77
2022/11/03 01:22:08;;;;;;;0.40;0.40;;;23.20;64.50;;;23.33;46.60;95555.56;5078121;28;20681;-77
2022/11/03 01:24:40;;;;;;;0.40;0.40;;;23.10;64.40;;;23.37;46.58;95562.00;5078167;28;20207;-77
2022/11/03 01:27:13;;;;;;;0.40;0.40;;;23.20;64.50;;;23.34;46.82;95549.16;5095268;28;20190;-77
2022/11/03 01:29:41;;;;;;;0.30;0.30;;;23.10;64.40;;;23.38;46.35;95554.78;5078235;28;20193;-77
2022/11/03 01:32:08;;;;;;;0.40;0.40;;;23.10;64.50;;;23.33;46.84;95542.97;5095002;28;20202;-77
2022/11/03 01:34:36;;;;;;;0.40;0.40;;;23.10;64.50;;;23.31;46.72;95534.41;5078251;28;20198;-77
2022/11/03 01:37:03;;;;;;;0.40;0.40;;;23.10;64.50;;;23.36;46.69;95548.88;5077941;28;20198;-77
2022/11/03 01:39:30;;;;;;;0.40;0.40;;;23.10;64.40;;;23.31;46.95;95544.28;5078247;28;20207;-77
2022/11/03 01:41:58;;;;;;;0.43;0.43;;;23.10;64.50;;;23.32;46.43;95544.03;5078141;28;20534;-77
2022/11/03 01:44:42;;;;;;;0.40;0.40;;;23.10;64.50;;;23.30;46.47;95540.00;5078089;28;20604;-77
2022/11/03 01:47:34;;;;;;;0.30;0.30;;;23.10;64.40;;;23.29;46.52;95541.06;5078553;28;20211;-77
2022/11/03 01:50:09;;;;;;;0.40;0.40;;;23.10;64.40;;;23.30;46.40;95548.03;5095022;28;20261;-77
2022/11/03 01:52:52;;;;;;;0.40;0.40;;;23.10;64.40;;;23.30;46.70;95554.19;5044970;28;20548;-77
2022/11/03 01:55:24;;;;;;;0.30;0.30;;;23.10;64.40;;;23.31;46.79;95533.59;5078224;28;20188;-77
2022/11/03 01:57:54;;;;;;;0.40;0.40;;;23.10;64.40;;;23.30;46.65;95540.00;5078000;28;20178;-77
2022/11/03 02:00:21;;;;;;;0.30;0.30;;;23.10;64.50;;;23.30;46.57;95540.81;5061348;28;20253;-77
2022/11/03 02:02:50;;;;;;;0.40;0.40;;;23.10;64.50;;;23.29;46.58;95533.03;5078724;28;20625;-77
2022/11/03 02:05:18;;;;;;;0.30;0.30;;;23.00;64.40;;;23.28;46.84;95521.53;5079328;28;20197;-77
2022/11/03 02:08:22;;;;;;;0.30;0.30;;;23.10;64.50;;;23.17;46.43;95512.63;5082238;28;20530;-77
2022/11/03 02:10:50;;;;;;;0.30;0.30;;;23.00;64.40;;;23.19;46.92;95520.38;5065588;28;20232;-77
2022/11/03 02:13:19;;;;;;;0.40;0.40;;;23.00;64.40;;;23.26;46.72;95529.00;5065083;28;20633;-77
2022/11/03 02:15:51;;;;;;;0.40;0.40;;;23.00;64.40;;;23.27;46.75;95524.47;5099558;28;20221;-77
2022/11/03 02:18:23;;;;;;;0.40;0.40;;;23.00;64.40;;;23.27;46.76;95519.13;5082018;28;20188;-77
2022/11/03 02:21:25;;;;;;;0.40;0.40;;;23.00;64.40;;;23.24;46.63;95508.91;5081547;28;20235;-77
2022/11/03 02:24:04;;;;;;;0.30;0.30;;;23.00;64.40;;;23.24;46.74;95512.41;5078193;28;20268;-77
2022/11/03 02:26:31;;;;;;;0.40;0.40;;;23.00;64.40;;;23.25;46.65;95515.88;5064753;28;20214;-77
2022/11/03 02:28:58;;;;;;;0.40;0.40;;;23.00;64.40;;;23.14;46.71;95491.72;5064857;28;20213;-77
2022/11/03 02:31:49;;;;;;;0.30;0.30;;;23.00;64.40;;;23.22;46.65;95508.34;5082150;28;20208;-77
2022/11/03 02:34:50;;;;;;;0.50;0.50;;;23.00;64.40;;;23.17;46.75;95498.44;5081611;28;20256;-77
2022/11/03 02:37:23;;;;;;;0.40;0.40;;;23.00;64.40;;;23.15;46.45;95487.16;5048301;28;20636;-77
2022/11/03 02:39:59;;;;;;;0.40;0.40;;;23.00;64.40;;;23.20;46.67;95497.13;5064932;28;20265;-77
2022/11/03 02:42:26;;;;;;;0.40;0.40;;;23.00;64.40;;;23.19;46.56;95490.94;5048331;28;20199;-77
2022/11/03 02:44:59;;;;;;;0.50;0.50;;;23.00;64.40;;;23.15;46.63;95479.91;5081378;28;20186;-77
2022/11/03 02:47:28;;;;;;;0.40;0.40;;;23.00;64.40;;;23.20;46.62;95484.53;5081678;28;20171;-77
2022/11/03 02:49:55;;;;;;;0.40;0.40;;;23.00;64.40;;;23.21;46.66;95488.03;5064627;28;20200;-77
2022/11/03 02:52:42;;;;;;;0.40;0.40;;;23.00;64.40;;;23.18;46.41;95482.13;5081166;28;20298;-77
2022/11/03 02:55:36;;;;;;;0.32;0.32;;;23.00;64.40;;;23.16;46.70;95473.53;5081070;28;20194;-77
2022/11/03 02:58:24;;;;;;;0.32;0.32;;;23.00;64.50;;;23.15;46.52;95474.56;5081227;28;20194;-77
2022/11/03 03:01:24;;;;;;;0.40;0.40;;;23.00;64.40;;;23.12;46.38;95475.09;5064247;28;20199;-77
2022/11/03 03:03:57;;;;;;;0.40;0.40;;;23.00;64.50;;;23.13;46.69;95468.69;5081185;28;20178;-77
2022/11/03 03:06:35;;;;;;;0.50;0.50;;;23.00;64.40;;;23.14;46.69;95462.28;5064537;28;20607;-77
2022/11/03 03:09:11;;;;;;;0.45;0.45;;;22.90;64.40;;;23.02;46.35;95438.38;5080851;28;20545;-77
2022/11/03 03:11:42;;;;;;;0.40;0.40;;;22.90;64.40;;;23.13;46.66;95460.66;5047733;28;20237;-77
2022/11/03 03:14:23;;;;;;;0.40;0.40;;;22.90;64.40;;;23.10;46.56;95455.00;5098505;28;20196;-77
2022/11/03 03:17:01;;;;;;;0.30;0.30;;;22.90;64.40;;;23.12;46.66;95456.38;5079994;28;20214;-77
2022/11/03 03:19:48;;;;;;;0.40;0.40;;;22.90;64.30;;;23.09;46.60;95440.00;5080785;28;20207;-77
2022/11/03 03:22:45;;;;;;;0.40;0.40;;;22.90;64.40;;;23.09;46.64;95442.69;5098218;28;20289;-78
2022/11/03 03:25:31;;;;;;;0.40;0.40;;;22.90;64.30;;;23.03;46.64;95433.81;5080680;28;20195;-77
2022/11/03 03:28:15;;;;;;;0.50;0.50;;;22.90;64.40;;;23.05;46.63;95425.56;5097470;28;20221;-77
2022/11/03 03:30:44;;;;;;;0.40;0.40;;;22.90;64.40;;;23.02;46.54;95419.66;5080483;28;20195;-77
2022/11/03 03:33:12;;;;;;;0.40;0.40;;;22.90;64.40;;;23.03;46.65;95417.75;5080426;28;20190;-77
2022/11/03 03:35:44;;;;;;;0.40;0.40;;;22.90;64.40;;;23.06;46.69;95419.94;5080476;28;20255;-77
2022/11/03 03:38:18;;;;;;;0.43;0.43;;;22.90;64.40;;;23.09;46.53;95413.25;5063803;28;20187;-77
2022/11/03 03:40:50;;;;;;;0.30;0.30;;;22.90;64.40;;;23.03;46.64;95415.91;5047734;28;20213;-77
2022/11/03 03:43:22;;;;;;;0.38;0.38;;;22.90;64.40;;;23.01;46.63;95407.34;5080498;28;20176;-77
2022/11/03 03:45:53;;;;;;;0.40;0.40;;;22.90;64.40;;;23.03;46.42;95415.91;5047555;28;20281;-77
2022/11/03 03:48:21;;;;;;;0.35;0.35;;;22.90;64.40;;;23.09;46.34;95415.94;5080393;28;20181;-77
2022/11/03 03:50:50;;;;;;;0.40;0.40;;;22.90;64.40;;;23.03;46.60;95409.75;5063961;28;20227;-77
2022/11/03 03:53:18;;;;;;;0.40;0.40;;;22.90;64.40;;;23.09;46.49;95411.38;5047097;28;20231;-77
2022/11/03 03:55:49;;;;;;;0.35;0.35;;;22.90;64.40;;;23.08;46.52;95406.28;5079833;28;20199;-77
2022/11/03 03:58:17;;;;;;;0.30;0.30;;;22.90;64.40;;;23.05;46.82;95393.44;5080155;28;20189;-77
2022/11/03 04:00:45;;;;;;;0.40;0.40;;;22.90;64.40;;;23.03;46.63;95399.03;5046654;28;20606;-77
2022/11/03 04:03:17;;;;;;;0.40;0.40;;;22.80;64.30;;;23.07;46.50;95396.66;5046807;28;20713;-77
2022/11/03 04:05:45;;;;;;;0.40;0.40;;;22.80;64.40;;;23.06;46.65;95393.19;5079801;28;20198;-77
2022/11/03 04:08:15;;;;;;;0.40;0.40;;;22.80;64.30;;;23.07;46.67;95389.44;5096518;28;20203;-77
2022/11/03 04:24:34;;;;;;;0.40;0.40;;;22.80;64.40;;;22.99;46.48;95377.34;5082379;28;20225;-77
2022/11/03 04:27:15;;;;;;;0.40;0.40;;;22.80;64.30;;;22.93;46.82;95362.34;5062633;28;20251;-77
2022/11/03 04:29:44;;;;;;;0.40;0.40;;;22.80;64.30;;;22.95;46.68;95362.88;5079099;28;20208;-77
2022/11/03 04:32:17;;;;;;;0.50;0.50;;;22.80;64.30;;;22.98;46.58;95361.56;5079191;28;20194;-77
2022/11/03 04:34:47;;;;;;;0.40;0.40;;;22.80;64.30;;;22.99;46.79;95363.97;5079085;28;20225;-77
2022/11/03 04:37:15;;;;;;;0.40;0.40;;;22.70;64.20;;;22.99;46.66;95357.81;5079379;28;20523;-77
2022/11/03 04:39:43;;;;;;;0.40;0.40;;;22.80;64.40;;;22.98;46.51;95358.88;5096004;28;20566;-77
2022/11/03 04:42:20;;;;;;;0.40;0.40;;;22.80;64.40;;;22.93;46.65;95348.16;5079044;28;20194;-77
2022/11/03 04:44:49;;;;;;;0.30;0.30;;;22.80;64.30;;;22.98;46.78;95358.88;5062412;28;20527;-77
2022/11/03 04:47:17;;;;;;;0.30;0.30;;;22.80;64.30;;;22.94;46.71;95353.25;5095583;28;20189;-77
2022/11/03 04:49:47;;;;;;;0.30;0.30;;;22.80;64.30;;;22.96;46.59;95350.31;5078397;28;20193;-77
2022/11/03 04:52:19;;;;;;;0.40;0.40;;;22.80;64.30;;;22.93;46.72;95335.59;5078956;28;20204;-77
2022/11/03 04:54:48;;;;;;;0.50;0.50;;;22.80;64.30;;;22.97;46.45;95347.41;5045801;28;20609;-77
2022/11/03 04:57:17;;;;;;;0.32;0.32;;;22.80;64.30;;;22.95;46.52;95348.69;5095489;28;20196;-77
2022/11/03 04:59:49;;;;;;;0.40;0.40;;;22.80;64.30;;;22.95;46.40;95338.00;5078109;28;20226;-77
2022/11/03 05:02:19;;;;;;;0.43;0.43;;;22.70;64.20;;;22.90;46.52;95324.59;5045568;28;20209;-77
2022/11/03 05:04:47;;;;;;;0.38;0.38;;;22.80;64.40;;;22.93;46.78;95332.91;5062391;28;20266;-77
2022/11/03 05:07:22;;;;;;;0.40;0.40;;;22.80;64.30;;;22.94;46.59;95334.53;5078686;28;20214;-77
2022/11/03 05:09:51;;;;;;;0.30;0.30;;;22.70;64.20;;;22.89;46.30;95320.31;5078468;28;20227;-77
2022/11/03 05:12:19;;;;;;;0.40;0.40;;;22.80;64.40;;;22.94;46.48;95323.81;5061913;28;20578;-77
2022/11/03 05:14:47;;;;;;;0.40;0.40;;;22.80;64.30;;;22.89;46.44;95320.31;5078690;28;20198;-77
2022/11/03 05:17:23;;;;;;;0.40;0.40;;;22.80;64.30;;;22.89;46.36;95307.75;5061640;28;20217;-77
2022/11/03 05:20:02;;;;;;;0.40;0.40;;;22.70;64.20;;;22.88;46.29;95303.47;5078437;28;20281;-77
2022/11/03 05:22:35;;;;;;;0.30;0.30;;;22.70;64.20;;;22.92;46.59;95317.91;5078538;28;20234;-77
2022/11/03 05:25:42;;;;;;;0.40;0.40;;;22.70;64.30;;;22.89;46.38;95305.09;5095092;28;20206;-77
2022/11/03 05:28:27;;;;;;;0.40;0.40;;;22.70;64.20;;;22.86;46.65;95294.88;5078354;28;20201;-77
2022/11/03 05:30:55;;;;;;;0.40;0.40;;;22.70;64.30;;;22.88;46.43;95303.47;5079148;28;20215;-77
2022/11/03 05:33:33;;;;;;;0.32;0.32;;;22.70;64.20;;;22.88;46.30;95300.00;5095637;28;20193;-77
2022/11/03 05:36:11;;;;;;;0.38;0.38;;;22.70;64.20;;;22.88;46.67;95302.69;5095224;28;20192;-77
2022/11/03 05:38:38;;;;;;;0.40;0.40;;;22.70;64.20;;;22.86;46.54;95298.38;5094645;28;20199;-78
2022/11/03 05:41:14;;;;;;;0.40;0.40;;;22.70;64.20;;;22.86;46.88;95298.38;5078021;28;20206;-78
2022/11/03 05:43:42;;;;;;;0.30;0.30;;;22.70;64.20;;;22.79;46.74;95291.63;5078079;28;20217;-78
2022/11/03 05:46:10;;;;;;;0.40;0.40;;;22.70;64.30;;;22.88;46.63;95300.00;5078063;28;20186;-78
2022/11/03 05:48:44;;;;;;;0.40;0.40;;;22.70;64.30;;;22.82;46.52;95285.78;5061297;28;20296;-78
2022/11/03 05:51:39;;;;;;;0.40;0.40;;;22.70;64.30;;;22.84;46.69;95294.38;5045351;28;20195;-78
2022/11/03 05:54:15;;;;;;;0.40;0.40;;;22.70;64.30;;;22.84;46.38;95289.81;5078142;28;20182;-78
2022/11/03 05:56:46;;;;;;;0.40;0.40;;;22.70;64.20;;;22.75;46.40;95271.84;5078209;28;20565;-78
2022/11/03 05:59:18;;;;;;;0.30;0.30;;;22.70;64.30;;;22.80;46.63;95279.88;5077689;28;20586;-78
2022/11/03 06:01:45;;;;;;;0.40;0.40;;;22.60;64.20;;;22.83;46.64;95282.06;5077702;28;20215;-78
2022/11/03 06:04:23;;;;;;;0.40;0.40;;;22.60;64.20;;;22.84;46.50;95286.34;5094510;28;20190;-78
2022/11/03 06:06:59;;;;;;;0.40;0.40;;;22.60;64.20;;;22.80;46.27;95270.00;5094955;28;20178;-78
2022/11/03 06:09:26;;;;;;;0.40;0.40;;;22.60;64.20;;;22.80;46.70;95277.22;5044369;28;20199;-78
2022/11/03 06:11:58;;;;;;;0.40;0.40;;;22.60;64.20;;;22.78;46.75;95274.81;5078169;28;20630;-78
2022/11/03 06:14:27;;;;;;;0.40;0.40;;;22.60;64.20;;;22.82;46.48;95286.59;5061688;28;20526;-78
2022/11/03 06:17:10;;;;;;;0.40;0.40;;;22.60;64.20;;;22.81;46.42;95279.66;5077823;28;20255;-78
2022/11/03 06:19:44;;;;;;;0.30;0.30;;;22.60;64.20;;;22.81;46.64;95281.50;5077334;28;20226;-78
2022/11/03 06:22:20;;;;;;;0.43;0.43;;;22.60;64.20;;;22.82;46.71;95277.75;5077628;28;20668;-78
2022/11/03 06:24:47;;;;;;;0.45;0.45;;;22.60;64.20;;;22.81;46.34;95284.19;5094757;28;20178;-78
2022/11/03 06:27:22;;;;;;;0.35;0.35;;;22.60;64.20;;;22.80;46.37;95280.72;5078061;28;20557;-78
2022/11/03 06:30:00;;;;;;;0.40;0.40;;;22.60;64.20;;;22.80;46.54;95274.53;5077396;28;20530;-78
2022/11/03 06:32:28;;;;;;;0.30;0.30;;;22.60;64.20;;;22.80;46.50;95278.03;5077447;28;20207;-78
2022/11/03 06:34:57;;;;;;;0.40;0.40;;;22.60;64.20;;;22.80;46.72;95278.03;5094538;28;20186;-78
2022/11/03 06:37:26;;;;;;;0.40;0.40;;;22.60;64.20;;;22.79;46.73;95280.94;5077475;28;20297;-78
2022/11/03 06:40:01;;;;;;;0.40;0.40;;;22.60;64.20;;;22.76;46.53;95282.28;5060561;28;20235;-78
2022/11/03 06:42:32;;;;;;;0.40;0.40;;;22.60;64.30;;;22.74;46.39;95273.72;5060809;28;20182;-78
2022/11/03 06:45:01;;;;;;;0.40;0.40;;;22.60;64.20;;;22.74;46.43;95271.06;5061197;28;20217;-78
2022/11/03 06:47:28;;;;;;;0.40;0.40;;;22.60;64.20;;;22.76;46.54;95270.78;5060937;28;20633;-78
2022/11/03 06:49:58;;;;;;;0.30;0.30;;;22.60;64.20;;;22.77;46.82;95275.06;5077622;28;20205;-78
2022/11/03 06:52:31;;;;;;;0.30;0.30;;;22.60;64.20;;;22.81;46.42;95271.63;5080598;28;20491;-78
2022/11/03 06:55:14;;;;;;;0.38;0.38;;;22.60;64.20;;;22.81;46.43;95274.31;5098225;28;20186;-78
2022/11/03 06:57:47;;;;;;;0.30;0.30;;;22.60;64.20;;;22.81;46.56;95268.13;5081736;28;20598;-78
2022/11/03 07:00:21;;;;;;;0.40;0.40;;;22.60;64.20;;;22.76;46.38;95257.41;5064266;28;20214;-78
2022/11/03 07:03:26;;;;;;;0.40;0.40;;;22.60;64.20;;;22.78;46.61;95264.09;5066654;28;20277;-78
2022/11/03 07:06:26;;;;;;;0.40;0.40;;;22.60;65.10;;;22.74;46.77;95254.19;5080917;28;20206;-78
2022/11/03 07:08:58;;;;;;;0.40;0.40;;;22.60;64.20;;;22.76;46.41;95260.09;5064607;28;20207;-78
2022/11/03 07:11:31;;;;;;;0.40;0.40;;;22.60;64.20;;;22.74;46.41;95247.00;5064212;28;20203;-78
2022/11/03 07:14:12;;;;;;;0.40;0.40;;;22.60;64.20;;;22.82;46.39;95259.84;5080789;28;20619;-78
2022/11/03 07:17:01;;;;;;;0.40;0.40;;;22.60;64.20;;;22.82;46.36;95267.84;5080963;28;20181;-78
2022/11/03 07:19:49;;;;;;;0.40;0.40;;;22.60;64.20;;;22.81;46.30;95260.09;5080652;28;20512;-78
2022/11/03 07:22:24;;;;;;;0.50;0.50;;;22.60;64.20;;;22.82;46.37;95253.69;5097538;28;20319;-78
2022/11/03 07:24:55;;;;;;;0.30;0.30;;;22.60;64.20;;;22.78;46.36;95242.72;5097647;28;20625;-78
2022/11/03 07:27:35;;;;;;;0.40;0.40;;;22.60;64.20;;;22.75;46.49;95234.41;5080738;28;20183;-78
2022/11/03 07:30:34;;;;;;;0.40;0.40;;;22.60;64.20;;;22.83;46.41;95247.28;5080689;28;20178;-78
2022/11/03 07:33:15;;;;;;;0.43;0.43;;;22.60;64.20;;;22.80;46.72;95240.59;5097453;28;20187;-77
2022/11/03 07:35:44;;;;;;;0.40;0.40;;;22.60;64.10;;;22.79;46.63;95230.97;5063732;28;20202;-78
2022/11/03 07:38:32;;;;;;;0.40;0.40;;;22.60;64.20;;;22.84;46.32;95235.53;5083519;28;20207;-78
2022/11/03 07:40:59;;;;;;;0.30;0.30;;;22.60;64.20;;;22.82;46.60;95229.63;5080064;28;20217;-78
2022/11/03 07:43:37;;;;;;;0.40;0.40;;;22.60;65.10;;;22.81;46.42;95223.50;5063837;28;20616;-78
2022/11/03 07:46:05;;;;;;;0.40;0.40;;;22.60;64.10;;;22.87;46.44;95229.63;5080325;28;20200;-78
2022/11/03 07:48:44;;;;;;;0.40;0.40;;;22.60;64.20;;;22.83;46.52;95229.34;5079889;28;20202;-78
2022/11/03 07:51:16;;;;;;;0.40;0.40;;;22.70;64.20;;;22.88;46.50;95217.09;5079954;28;20275;-78
2022/11/03 07:53:46;;;;;;;0.40;0.40;;;22.60;64.20;;;22.88;46.49;95217.88;5080198;28;20210;-78
2022/11/03 07:56:25;;;;;;;0.35;0.35;;;22.70;64.20;;;22.78;46.57;95193.78;5063178;28;20210;-78
2022/11/03 07:59:08;;;;;;;0.40;0.40;;;22.70;64.20;;;22.88;46.40;95209.06;5080238;28;20188;-78
2022/11/03 08:01:47;;;;;;;0.40;0.40;;;22.70;64.20;;;22.87;46.74;95200.22;5079883;28;20224;-78
2022/11/03 08:04:22;;;;;;;0.40;0.40;;;22.70;64.20;;;22.87;46.38;95202.91;5079401;28;20181;-78
2022/11/03 08:06:50;;;;;;;0.50;0.50;;;22.70;64.10;;;22.89;46.27;95200.78;5079961;28;20183;-78
2022/11/03 08:09:18;;;;;;;0.40;0.40;;;22.70;64.20;;;22.86;46.52;95196.75;5062798;28;20200;-78
2022/11/03 08:11:45;;;;;;;0.40;0.40;;;22.70;64.20;;;22.84;46.34;95185.50;5079837;28;20536;-78
2022/11/03 08:14:13;;;;;;;0.40;0.40;;;22.70;64.20;;;22.91;46.27;95187.13;5079727;28;20195;-78
2022/11/03 08:16:40;;;;;;;0.30;0.30;;;22.70;64.20;;;22.84;46.63;95174.81;5096463;28;20270;-78
2022/11/03 08:19:08;;;;;;;0.40;0.40;;;22.70;64.20;;;22.83;46.61;95159.81;5063029;28;20629;-78
2022/11/03 08:21:35;;;;;;;0.30;0.30;;;22.70;64.10;;;22.92;46.26;95168.13;5078961;28;20239;-78
2022/11/03 08:24:03;;;;;;;0.38;0.38;;;22.70;64.10;;;22.91;46.15;95155.84;5079287;28;20272;-77
2022/11/03 08:26:31;;;;;;;0.40;0.40;;;22.70;64.10;;;22.82;46.34;95142.16;5079285;28;20246;-77
2022/11/03 08:28:58;;;;;;;0.35;0.35;;;22.70;64.00;;;22.91;46.50;95153.19;5096109;28;20264;-77
2022/11/03 08:31:25;;;;;;;0.40;0.40;;;22.70;64.10;;;22.92;46.16;95146.72;5062626;28;20560;-77
2022/11/03 08:33:52;;;;;;;0.30;0.30;;;22.80;64.20;;;22.95;46.61;95154.25;5097033;28;20195;-77
2022/11/03 08:36:19;;;;;;;0.45;0.45;;;22.70;64.10;;;22.92;46.30;95138.72;5079377;28;20194;-77
2022/11/03 08:38:46;;;;;;;0.40;0.40;;;22.70;64.00;;;22.95;46.40;95140.88;5062477;28;20293;-77
2022/11/03 08:41:13;;;;;;;0.40;0.40;;;22.70;64.00;;;22.95;46.34;95134.69;5078561;28;20652;-77
2022/11/03 08:43:41;;;;;;;0.30;0.30;;;22.70;64.10;;;22.95;46.47;95134.69;5078874;28;20239;-77
2022/11/03 08:46:08;;;;;;;0.40;0.40;;;22.80;64.20;;;22.97;46.39;95122.69;5078607;28;20201;-77
2022/11/03 08:48:44;;;;;;;0.40;0.40;;;22.70;64.00;;;22.96;46.21;95121.09;5080174;28;20198;-77
2022/11/03 08:51:13;;;;;;;0.40;0.40;;;22.70;64.10;;;22.90;46.36;95107.94;5079112;28;20190;-77
2022/11/03 08:53:41;;;;;;;0.40;0.40;;;22.80;65.10;;;22.98;46.25;95121.59;5062092;28;20620;-77
2022/11/03 08:56:10;;;;;;;0.30;0.30;;;22.80;64.30;;;22.96;46.48;95109.56;5061961;28;20287;-77
2022/11/03 08:58:40;;;;;;;0.45;0.45;;;22.80;64.10;;;22.98;46.36;95110.09;5079401;28;20270;-77
2022/11/03 09:01:07;;;;;;;0.30;0.30;;;22.80;64.10;;;23.01;46.23;95101.56;5095523;28;20654;-77
2022/11/03 09:03:34;;;;;;;0.32;0.32;;;22.80;64.20;;;22.95;46.33;95094.56;5095654;28;20202;-77
2022/11/03 09:06:02;;;;;;;0.30;0.30;;;22.80;64.20;;;22.96;46.57;95093.50;5078933;28;20278;-77
2022/11/03 09:08:29;;;;;;;0.40;0.40;;;22.80;64.20;;;23.00;46.62;95090.03;5061928;28;20520;-77
2022/11/03 09:11:16;;;;;;;0.50;0.50;;;22.80;64.10;;;23.01;46.35;95091.66;5095808;28;20207;-77
2022/11/03 09:13:43;;;;;;;0.30;0.30;;;22.80;64.10;;;23.03;46.31;95091.38;5078318;28;20259;-77
2022/11/03 09:16:12;;;;;;;0.40;0.40;;;22.80;64.10;;;23.03;46.48;95089.53;5077522;28;20206;-78
2022/11/03 09:18:39;;;;;;;0.38;0.38;;;22.80;64.20;;;23.06;46.57;95092.72;5078428;28;20211;-77
2022/11/03 09:21:07;;;;;;;0.30;0.30;;;22.80;64.10;;;23.04;46.28;95084.97;5077907;28;20225;-78
2022/11/03 09:23:34;;;;;;;0.40;0.40;;;22.80;64.10;;;23.05;46.22;95083.13;5078727;28;20235;-77
2022/11/03 09:26:02;;;;;;;0.40;0.40;;;22.80;64.10;;;23.01;46.67;95075.59;5061454;28;20195;-78
2022/11/03 09:28:29;;;;;;;0.30;0.30;;;22.80;64.10;;;23.07;46.45;95073.75;5061634;28;20631;-78
2022/11/03 09:30:57;;;;;;;0.43;0.43;;;22.80;64.00;;;23.02;46.26;95071.88;5061461;28;20198;-77
2022/11/03 09:33:24;;;;;;;0.40;0.40;;;22.80;64.10;;;23.03;46.45;95068.13;5078092;28;20214;-77
2022/11/03 09:35:51;;;;;;;0.40;0.40;;;22.80;64.10;;;23.11;46.43;95076.69;5044903;28;20202;-77
2022/11/03 09:38:19;;;;;;;0.40;0.40;;;22.80;64.10;;;23.12;46.18;95070.25;5078429;28;20188;-77
2022/11/03 09:40:46;;;;;;;0.30;0.30;;;22.90;64.10;;;23.11;46.53;95074.03;5061047;28;20218;-77
2022/11/03 09:43:14;;;;;;;0.43;0.43;;;22.90;64.10;;;23.13;46.47;95074.53;5077838;28;20211;-77
2022/11/03 09:45:41;;;;;;;0.43;0.43;;;22.90;64.10;;;23.10;46.53;95065.16;5077842;28;20215;-77
2022/11/03 09:48:10;;;;;;;0.40;0.40;;;22.90;64.10;;;23.14;45.87;95070.78;5061364;28;20609;-77
2022/11/03 09:50:38;;;;;;;0.45;0.45;;;22.90;64.10;;;23.12;46.33;95054.19;5060968;28;20195;-77
2022/11/03 09:53:10;;;;;;;0.40;0.40;;;22.90;64.10;;;23.16;46.24;95065.97;5061201;28;20201;-79
2022/11/03 09:55:39;;;;;;;0.40;0.40;;;22.90;64.00;;;23.16;45.74;95060.63;5077598;28;20213;-77
2022/11/03 09:58:15;;;;;;;0.40;0.40;;;22.90;64.90;;;23.12;46.07;95043.50;5094318;28;20626;-77
2022/11/03 10:00:46;;;;;;;0.40;0.40;;;22.90;64.00;;;23.18;46.35;95061.22;5060721;28;20209;-77
2022/11/03 10:03:16;;;;;;;0.30;0.30;;;22.90;64.00;;;23.16;46.22;95047.25;5077779;28;20571;-77
2022/11/03 10:05:44;;;;;;;0.40;0.40;;;22.90;64.00;;;23.21;46.12;95049.16;5077663;28;20205;-77
2022/11/03 10:08:27;;;;;;;0.40;0.40;;;23.00;64.10;;;23.18;46.25;95029.88;5061160;28;20209;-77
2022/11/03 10:10:55;;;;;;;0.40;0.40;;;23.00;64.10;;;23.12;46.29;95024.75;5060674;28;20190;-77
2022/11/03 10:13:33;;;;;;;0.38;0.38;;;23.00;64.10;;;23.22;45.95;95032.00;5077725;28;20201;-77
2022/11/03 10:16:07;;;;;;;0.43;0.43;;;23.00;64.10;;;23.20;46.09;95024.25;5060891;28;20673;-77
2022/11/03 10:18:36;;;;;;;0.40;0.40;;;23.00;64.00;;;23.22;46.16;95027.47;5077618;28;20188;-77
2022/11/03 10:21:17;;;;;;;0.40;0.40;;;23.00;64.00;;;23.21;45.97;95022.41;5076878;28;20244;-77
2022/11/03 10:23:45;;;;;;;0.40;0.40;;;23.00;64.00;;;23.17;46.36;95004.19;5060643;28;20545;-77
2022/11/03 10:26:17;;;;;;;0.35;0.35;;;23.00;64.00;;;23.18;45.92;95005.03;5062243;28;20582;-77
2022/11/03 10:29:08;;;;;;;0.40;0.40;;;23.00;64.00;;;23.15;46.07;94995.59;5064627;28;20224;-77
2022/11/03 10:31:39;;;;;;;0.40;0.40;;;23.00;64.00;;;23.19;46.18;94998.56;5081589;28;20252;-77
2022/11/03 10:34:36;;;;;;;0.30;0.30;;;23.00;64.00;;;23.18;46.02;94991.63;5064734;28;20204;-77
2022/11/03 10:37:23;;;;;;;0.40;0.40;;;23.00;63.90;;;23.18;46.20;94989.75;5080955;28;20226;-77
2022/11/03 10:39:55;;;;;;;0.50;0.50;;;23.00;64.00;;;23.11;46.01;94970.47;5064829;28;20174;-77
2022/11/03 10:42:25;;;;;;;0.40;0.40;;;23.00;63.90;;;23.20;46.31;94977.97;5064843;28;20206;-77
2022/11/03 10:45:18;;;;;;;0.35;0.35;;;23.00;64.00;;;23.20;46.16;94975.31;5097901;28;20220;-77
2022/11/03 10:48:01;;;;;;;0.40;0.40;;;23.00;64.00;;;23.16;46.24;94970.47;5064973;28;20194;-77
2022/11/03 10:50:28;;;;;;;0.50;0.50;;;23.00;64.00;;;23.15;46.26;94970.72;5080706;28;20615;-77
2022/11/03 10:52:56;;;;;;;0.40;0.40;;;23.00;64.00;;;23.14;46.06;94959.25;5080897;28;20205;-77
2022/11/03 10:55:26;;;;;;;0.40;0.40;;;23.00;64.00;;;23.22;46.24;94957.09;5097769;28;20203;-77
2022/11/03 10:57:56;;;;;;;0.40;0.40;;;23.00;64.00;;;23.20;46.17;94948.53;5097170;28;20644;-77
2022/11/03 11:00:24;;;;;;;0.30;0.30;;;23.00;63.90;;;23.20;45.92;94948.53;5097283;28;20214;-77
2022/11/03 11:02:58;;;;;;;0.30;0.30;;;23.00;63.90;;;23.22;46.17;94941.03;5080697;28;20306;-77